sensor_id;sensor_type;location;lat;lon;timestamp;pressure;altitude;pressure_sealevel;temperature;humidity
50636;BME280;36598;46.054;11.130;2023-04-05T00:02:03;99332.31;;;6.72;41.74
50636;BME280;36598;46.054;11.130;2023-04-05T00:04:29;99334.44;;;7.18;41.05
50636;BME280;36598;46.054;11.130;2023-04-05T00:06:58;99341.91;;;7.07;42.06
50636;BME280;36598;46.054;11.130;2023-04-05T00:09:23;99335.69;;;7.28;41.25
50636;BME280;36598;46.054;11.130;2023-04-05T00:11:49;99343.50;;;7.22;41.28
50636;BME280;36598;46.054;11.130;2023-04-05T00:14:14;99340.38;;;7.20;41.75
50636;BME280;36598;46.054;11.130;2023-04-05T00:16:40;99338.00;;;7.26;41.71
50636;BME280;36598;46.054;11.130;2023-04-05T00:19:05;99340.59;;;6.80;42.76
50636;BME280;36598;46.054;11.130;2023-04-05T00:21:31;99340.75;;;5.91;44.45
50636;BME280;36598;46.054;11.130;2023-04-05T00:23:57;99342.78;;;5.94;44.08
50636;BME280;36598;46.054;11.130;2023-04-05T00:26:23;99338.78;;;5.88;44.62
50636;BME280;36598;46.054;11.130;2023-04-05T00:28:49;99350.19;;;5.49;44.94
50636;BME280;36598;46.054;11.130;2023-04-05T00:31:15;99343.38;;;5.76;44.70
50636;BME280;36598;46.054;11.130;2023-04-05T00:33:40;99342.56;;;6.13;43.24
50636;BME280;36598;46.054;11.130;2023-04-05T00:36:13;99343.59;;;6.53;42.77
50636;BME280;36598;46.054;11.130;2023-04-05T00:38:39;99342.16;;;6.15;43.69
50636;BME280;36598;46.054;11.130;2023-04-05T00:41:04;99343.06;;;6.33;43.32
50636;BME280;36598;46.054;11.130;2023-04-05T00:43:30;99341.59;;;6.43;43.32
50636;BME280;36598;46.054;11.130;2023-04-05T00:45:55;99340.97;;;6.78;42.84
50636;BME280;36598;46.054;11.130;2023-04-05T00:48:21;99335.41;;;6.60;42.89
50636;BME280;36598;46.054;11.130;2023-04-05T00:50:49;99342.50;;;6.72;42.32
50636;BME280;36598;46.054;11.130;2023-04-05T00:53:16;99335.16;;;6.24;42.79
50636;BME280;36598;46.054;11.130;2023-04-05T00:55:42;99330.69;;;6.61;42.66
50636;BME280;36598;46.054;11.130;2023-04-05T00:58:08;99334.34;;;6.86;41.88
50636;BME280;36598;46.054;11.130;2023-04-05T01:00:35;99335.75;;;5.96;43.45
50636;BME280;36598;46.054;11.130;2023-04-05T01:03:02;99325.09;;;6.43;42.99
50636;BME280;36598;46.054;11.130;2023-04-05T01:10:36;99337.47;;;6.81;43.06
50636;BME280;36598;46.054;11.130;2023-04-05T01:13:04;99330.72;;;6.64;43.25
50636;BME280;36598;46.054;11.130;2023-04-05T01:15:29;99327.50;;;6.55;43.33
50636;BME280;36598;46.054;11.130;2023-04-05T01:17:55;99332.66;;;6.64;43.27
50636;BME280;36598;46.054;11.130;2023-04-05T01:20:21;99336.25;;;6.78;42.27
50636;BME280;36598;46.054;11.130;2023-04-05T01:31:25;99338.72;;;6.28;42.71
50636;BME280;36598;46.054;11.130;2023-04-05T01:36:33;99332.25;;;5.21;45.01
50636;BME280;36598;46.054;11.130;2023-04-05T01:39:01;99332.47;;;5.84;44.43
50636;BME280;36598;46.054;11.130;2023-04-05T01:41:28;99336.56;;;6.00;44.26
50636;BME280;36598;46.054;11.130;2023-04-05T01:43:53;99335.06;;;6.10;44.28
50636;BME280;36598;46.054;11.130;2023-04-05T01:46:18;99332.94;;;5.48;44.27
50636;BME280;36598;46.054;11.130;2023-04-05T01:48:44;99342.44;;;5.58;44.53
50636;BME280;36598;46.054;11.130;2023-04-05T01:51:09;99333.47;;;5.65;44.55
50636;BME280;36598;46.054;11.130;2023-04-05T01:53:35;99343.81;;;5.78;43.90
50636;BME280;36598;46.054;11.130;2023-04-05T01:56:00;99348.41;;;6.12;43.21
50636;BME280;36598;46.054;11.130;2023-04-05T01:58:26;99337.59;;;6.37;43.47
50636;BME280;36598;46.054;11.130;2023-04-05T02:00:54;99341.47;;;6.28;43.34
50636;BME280;36598;46.054;11.130;2023-04-05T02:03:23;99344.78;;;6.52;42.77
50636;BME280;36598;46.054;11.130;2023-04-05T02:05:48;99341.47;;;6.28;43.89
50636;BME280;36598;46.054;11.130;2023-04-05T02:08:13;99342.56;;;6.13;44.06
50636;BME280;36598;46.054;11.130;2023-04-05T02:10:39;99340.25;;;5.78;44.26
50636;BME280;36598;46.054;11.130;2023-04-05T02:13:05;99347.75;;;5.81;44.92
50636;BME280;36598;46.054;11.130;2023-04-05T02:15:30;99344.75;;;5.93;44.43
50636;BME280;36598;46.054;11.130;2023-04-05T02:17:57;99343.81;;;5.78;44.38
50636;BME280;36598;46.054;11.130;2023-04-05T02:20:26;99347.03;;;5.88;44.65
50636;BME280;36598;46.054;11.130;2023-04-05T02:22:51;99353.94;;;6.15;44.01
50636;BME280;36598;46.054;11.130;2023-04-05T02:25:17;99346.78;;;6.00;44.09
50636;BME280;36598;46.054;11.130;2023-04-05T02:27:43;99345.59;;;6.01;43.98
50636;BME280;36598;46.054;11.130;2023-04-05T02:30:08;99345.94;;;5.96;44.60
50636;BME280;36598;46.054;11.130;2023-04-05T02:32:34;99353.09;;;6.08;44.00
50636;BME280;36598;46.054;11.130;2023-04-05T02:35:00;99347.25;;;6.16;43.66
50636;BME280;36598;46.054;11.130;2023-04-05T02:37:25;99349.19;;;6.12;44.00
50636;BME280;36598;46.054;11.130;2023-04-05T02:39:51;99348.81;;;6.10;44.31
50636;BME280;36598;46.054;11.130;2023-04-05T02:42:17;99342.94;;;5.71;45.03
50636;BME280;36598;46.054;11.130;2023-04-05T02:44:42;99345.84;;;5.89;44.92
50636;BME280;36598;46.054;11.130;2023-04-05T02:47:07;99350.66;;;5.95;44.51
50636;BME280;36598;46.054;11.130;2023-04-05T02:49:32;99338.78;;;5.88;44.54
50636;BME280;36598;46.054;11.130;2023-04-05T02:51:58;99345.94;;;5.96;44.37
50636;BME280;36598;46.054;11.130;2023-04-05T02:54:23;99338.66;;;5.73;44.94
50636;BME280;36598;46.054;11.130;2023-04-05T02:56:48;99345.78;;;5.82;44.60
50636;BME280;36598;46.054;11.130;2023-04-05T02:59:14;99341.50;;;5.84;44.91
50636;BME280;36598;46.054;11.130;2023-04-05T03:01:39;99333.59;;;5.38;45.72
50636;BME280;36598;46.054;11.130;2023-04-05T03:04:08;99328.97;;;5.09;46.35
50636;BME280;36598;46.054;11.130;2023-04-05T03:06:33;99331.03;;;5.56;45.26
50636;BME280;36598;46.054;11.130;2023-04-05T03:08:59;99328.47;;;5.77;45.05
50636;BME280;36598;46.054;11.130;2023-04-05T03:11:26;99328.41;;;5.67;44.86
50636;BME280;36598;46.054;11.130;2023-04-05T03:13:51;99332.34;;;5.69;45.14
50636;BME280;36598;46.054;11.130;2023-04-05T03:16:17;99333.16;;;5.73;44.72
50636;BME280;36598;46.054;11.130;2023-04-05T03:18:44;99328.47;;;5.77;44.99
50636;BME280;36598;46.054;11.130;2023-04-05T03:21:09;99325.97;;;5.58;44.47
50636;BME280;36598;46.054;11.130;2023-04-05T03:23:35;99333.97;;;5.74;44.81
50636;BME280;36598;46.054;11.130;2023-04-05T03:26:00;99331.53;;;5.69;44.68
50636;BME280;36598;46.054;11.130;2023-04-05T03:28:27;99332.75;;;5.71;44.59
50636;BME280;36598;46.054;11.130;2023-04-05T03:30:52;99330.09;;;5.78;44.19
50636;BME280;36598;46.054;11.130;2023-04-05T03:33:18;99328.53;;;5.81;44.33
50636;BME280;36598;46.054;11.130;2023-04-05T03:35:43;99327.75;;;5.40;45.82
50636;BME280;36598;46.054;11.130;2023-04-05T03:38:09;99325.63;;;5.22;45.86
50636;BME280;36598;46.054;11.130;2023-04-05T03:40:34;99326.63;;;5.07;46.81
50636;BME280;36598;46.054;11.130;2023-04-05T03:42:59;99334.38;;;4.68;47.93
50636;BME280;36598;46.054;11.130;2023-04-05T03:45:25;99328.09;;;5.01;46.77
50636;BME280;36598;46.054;11.130;2023-04-05T03:47:51;99328.06;;;5.35;46.10
50636;BME280;36598;46.054;11.130;2023-04-05T03:50:16;99327.28;;;5.34;45.80
50636;BME280;36598;46.054;11.130;2023-04-05T03:52:41;99324.94;;;5.33;45.93
50636;BME280;36598;46.054;11.130;2023-04-05T03:55:07;99327.53;;;5.18;46.29
50636;BME280;36598;46.054;11.130;2023-04-05T03:57:35;99324.97;;;5.36;45.56
50636;BME280;36598;46.054;11.130;2023-04-05T04:00:01;99327.53;;;5.18;45.87
50636;BME280;36598;46.054;11.130;2023-04-05T04:02:49;99326.75;;;4.84;45.87
50636;BME280;36598;46.054;11.130;2023-04-05T04:05:16;99332.78;;;4.97;45.57
50636;BME280;36598;46.054;11.130;2023-04-05T04:07:42;99326.88;;;4.95;45.81
50636;BME280;36598;46.054;11.130;2023-04-05T04:10:08;99329.16;;;4.89;46.10
50636;BME280;36598;46.054;11.130;2023-04-05T04:12:34;99331.84;;;4.86;46.22
50636;BME280;36598;46.054;11.130;2023-04-05T04:14:59;99333.81;;;4.55;47.17
50636;BME280;36598;46.054;11.130;2023-04-05T04:17:28;99332.41;;;4.98;46.42
50636;BME280;36598;46.054;11.130;2023-04-05T04:19:54;99335.19;;;5.02;46.49
50636;BME280;36598;46.054;11.130;2023-04-05T04:22:19;99338.88;;;4.26;48.03
50636;BME280;36598;46.054;11.130;2023-04-05T04:24:45;99341.25;;;4.85;47.07
50636;BME280;36598;46.054;11.130;2023-04-05T04:27:10;99336.66;;;4.36;47.87
50636;BME280;36598;46.054;11.130;2023-04-05T04:29:35;99343.75;;;4.67;46.87
50636;BME280;36598;46.054;11.130;2023-04-05T04:32:02;99343.22;;;4.88;46.34
50636;BME280;36598;46.054;11.130;2023-04-05T04:34:31;99348.06;;;4.68;46.95
50636;BME280;36598;46.054;11.130;2023-04-05T04:36:58;99346.78;;;4.62;47.12
50636;BME280;36598;46.054;11.130;2023-04-05T04:39:27;99348.16;;;4.75;47.01
50636;BME280;36598;46.054;11.130;2023-04-05T04:41:55;99350.50;;;5.07;46.55
50636;BME280;36598;46.054;11.130;2023-04-05T04:44:21;99350.25;;;4.85;47.13
50636;BME280;36598;46.054;11.130;2023-04-05T04:46:52;99351.91;;;4.33;47.76
50636;BME280;36598;46.054;11.130;2023-04-05T04:49:18;99351.69;;;4.45;47.89
50636;BME280;36598;46.054;11.130;2023-04-05T04:51:45;99352.59;;;4.87;47.27
50636;BME280;36598;46.054;11.130;2023-04-05T04:54:10;99359.31;;;4.89;46.59
50636;BME280;36598;46.054;11.130;2023-04-05T04:56:37;99363.34;;;4.99;46.52
50636;BME280;36598;46.054;11.130;2023-04-05T04:59:02;99356.00;;;5.07;46.88
50636;BME280;36598;46.054;11.130;2023-04-05T05:01:27;99358.31;;;5.05;46.60
50636;BME280;36598;46.054;11.130;2023-04-05T05:03:52;99353.66;;;5.09;46.94
50636;BME280;36598;46.054;11.130;2023-04-05T05:06:18;99365.13;;;4.84;47.28
50636;BME280;36598;46.054;11.130;2023-04-05T05:08:43;99366.44;;;4.37;48.10
50636;BME280;36598;46.054;11.130;2023-04-05T05:11:09;99368.47;;;4.44;47.77
50636;BME280;36598;46.054;11.130;2023-04-05T05:13:34;99370.34;;;4.66;47.29
50636;BME280;36598;46.054;11.130;2023-04-05T05:16:00;99359.94;;;5.09;46.72
50636;BME280;36598;46.054;11.130;2023-04-05T05:18:26;99365.06;;;5.11;47.01
50636;BME280;36598;46.054;11.130;2023-04-05T05:20:51;99369.63;;;5.33;46.57
50636;BME280;36598;46.054;11.130;2023-04-05T05:23:17;99365.78;;;5.41;45.95
50636;BME280;36598;46.054;11.130;2023-04-05T05:25:42;99367.97;;;5.62;45.88
50636;BME280;36598;46.054;11.130;2023-04-05T05:28:07;99360.75;;;5.13;46.52
50636;BME280;36598;46.054;11.130;2023-04-05T05:30:32;99372.94;;;5.16;46.72
50636;BME280;36598;46.054;11.130;2023-04-05T05:32:58;99373.81;;;5.57;45.97
50636;BME280;36598;46.054;11.130;2023-04-05T05:35:24;99364.34;;;5.55;46.01
50636;BME280;36598;46.054;11.130;2023-04-05T05:37:49;99372.03;;;5.38;45.91
50636;BME280;36598;46.054;11.130;2023-04-05T05:40:14;99376.09;;;5.51;45.91
50636;BME280;36598;46.054;11.130;2023-04-05T05:42:40;99376.91;;;5.56;46.07
50636;BME280;36598;46.054;11.130;2023-04-05T05:45:05;99366.22;;;5.10;46.95
50636;BME280;36598;46.054;11.130;2023-04-05T05:47:31;99373.41;;;5.59;45.64
50636;BME280;36598;46.054;11.130;2023-04-05T05:49:56;99370.19;;;5.90;45.30
50636;BME280;36598;46.054;11.130;2023-04-05T05:52:22;99374.38;;;6.18;44.47
50636;BME280;36598;46.054;11.130;2023-04-05T05:54:47;99371.94;;;6.09;45.09
50636;BME280;36598;46.054;11.130;2023-04-05T05:57:13;99378.91;;;5.96;45.54
50636;BME280;36598;46.054;11.130;2023-04-05T05:59:38;99378.22;;;6.10;45.01
50636;BME280;36598;46.054;11.130;2023-04-05T06:02:03;99381.94;;;6.32;44.21
50636;BME280;36598;46.054;11.130;2023-04-05T06:04:29;99381.13;;;5.12;47.03
50636;BME280;36598;46.054;11.130;2023-04-05T06:06:55;99378.47;;;5.94;45.46
50636;BME280;36598;46.054;11.130;2023-04-05T06:09:20;99381.84;;;6.17;44.61
50636;BME280;36598;46.054;11.130;2023-04-05T06:11:49;99383.28;;;6.56;43.94
50636;BME280;36598;46.054;11.130;2023-04-05T06:14:15;99382.34;;;6.37;44.19
50636;BME280;36598;46.054;11.130;2023-04-05T06:16:40;99381.50;;;6.26;44.57
50636;BME280;36598;46.054;11.130;2023-04-05T06:19:05;99383.69;;;6.58;44.06
50636;BME280;36598;46.054;11.130;2023-04-05T06:21:31;99388.91;;;6.77;44.03
50636;BME280;36598;46.054;11.130;2023-04-05T06:23:56;99377.97;;;9.38;39.46
50636;BME280;36598;46.054;11.130;2023-04-05T06:26:22;99373.91;;;11.02;36.14
50636;BME280;36598;46.054;11.130;2023-04-05T06:28:51;99368.84;;;12.59;33.03
50636;BME280;36598;46.054;11.130;2023-04-05T06:31:18;99370.63;;;11.99;32.92
50636;BME280;36598;46.054;11.130;2023-04-05T06:33:44;99369.88;;;12.45;31.60
50636;BME280;36598;46.054;11.130;2023-04-05T06:36:09;99373.84;;;12.88;31.33
50636;BME280;36598;46.054;11.130;2023-04-05T06:38:35;99373.44;;;11.68;32.92
50636;BME280;36598;46.054;11.130;2023-04-05T06:41:00;99367.53;;;10.71;34.64
50636;BME280;36598;46.054;11.130;2023-04-05T06:43:26;99379.75;;;8.92;38.93
50636;BME280;36598;46.054;11.130;2023-04-05T06:45:54;99366.19;;;12.28;33.44
50636;BME280;36598;46.054;11.130;2023-04-05T06:48:20;99367.44;;;9.88;35.56
50636;BME280;36598;46.054;11.130;2023-04-05T06:50:46;99366.44;;;10.16;35.64
50636;BME280;36598;46.054;11.130;2023-04-05T06:53:12;99365.78;;;9.98;36.54
50636;BME280;36598;46.054;11.130;2023-04-05T06:55:42;99371.97;;;11.91;32.83
50636;BME280;36598;46.054;11.130;2023-04-05T06:58:12;99357.25;;;12.84;31.95
50636;BME280;36598;46.054;11.130;2023-04-05T07:00:38;99359.19;;;14.48;28.59
50636;BME280;36598;46.054;11.130;2023-04-05T07:03:03;99357.00;;;14.40;29.28
50636;BME280;36598;46.054;11.130;2023-04-05T07:05:28;99354.00;;;15.21;27.79
50636;BME280;36598;46.054;11.130;2023-04-05T07:07:53;99354.00;;;15.21;27.50
50636;BME280;36598;46.054;11.130;2023-04-05T07:10:19;99347.41;;;15.83;26.36
50636;BME280;36598;46.054;11.130;2023-04-05T07:12:44;99348.78;;;16.38;25.71
50636;BME280;36598;46.054;11.130;2023-04-05T07:15:10;99350.72;;;13.87;29.09
50636;BME280;36598;46.054;11.130;2023-04-05T07:17:35;99345.13;;;14.68;27.03
50636;BME280;36598;46.054;11.130;2023-04-05T07:20:01;99344.22;;;16.32;25.66
50636;BME280;36598;46.054;11.130;2023-04-05T07:22:26;99331.78;;;16.80;24.06
50636;BME280;36598;46.054;11.130;2023-04-05T07:24:51;99344.81;;;16.14;25.34
50636;BME280;36598;46.054;11.130;2023-04-05T07:27:17;99341.41;;;18.35;22.77
50636;BME280;36598;46.054;11.130;2023-04-05T07:29:42;99343.94;;;18.60;22.15
50636;BME280;36598;46.054;11.130;2023-04-05T07:32:08;99340.34;;;19.15;21.43
50636;BME280;36598;46.054;11.130;2023-04-05T07:34:34;99340.47;;;18.38;21.93
50636;BME280;36598;46.054;11.130;2023-04-05T07:36:59;99345.31;;;18.56;21.51
50636;BME280;36598;46.054;11.130;2023-04-05T07:39:25;99337.59;;;20.57;19.88
50636;BME280;36598;46.054;11.130;2023-04-05T07:41:50;99335.75;;;20.20;20.25
50636;BME280;36598;46.054;11.130;2023-04-05T07:44:15;99332.06;;;19.30;21.06
50636;BME280;36598;46.054;11.130;2023-04-05T07:46:41;99346.16;;;20.29;20.28
50636;BME280;36598;46.054;11.130;2023-04-05T07:49:09;99334.78;;;16.86;23.36
50636;BME280;36598;46.054;11.130;2023-04-05T07:51:34;99326.72;;;19.41;21.21
50636;BME280;36598;46.054;11.130;2023-04-05T07:54:01;99337.06;;;18.61;21.41
50636;BME280;36598;46.054;11.130;2023-04-05T07:56:27;99336.97;;;19.95;20.38
50636;BME280;36598;46.054;11.130;2023-04-05T07:58:54;99327.31;;;19.63;20.53
50636;BME280;36598;46.054;11.130;2023-04-05T08:01:19;99332.88;;;17.89;21.98
50636;BME280;36598;46.054;11.130;2023-04-05T08:03:45;99322.31;;;20.87;20.23
50636;BME280;36598;46.054;11.130;2023-04-05T08:06:14;99321.88;;;20.17;20.42
50636;BME280;36598;46.054;11.130;2023-04-05T08:08:43;99326.53;;;20.68;20.16
50636;BME280;36598;46.054;11.130;2023-04-05T08:11:08;99327.13;;;19.06;21.51
50636;BME280;36598;46.054;11.130;2023-04-05T08:13:34;99319.94;;;19.05;21.56
50636;BME280;36598;46.054;11.130;2023-04-05T08:16:00;99322.94;;;19.01;21.76
50636;BME280;36598;46.054;11.130;2023-04-05T08:18:26;99314.72;;;19.92;20.69
50636;BME280;36598;46.054;11.130;2023-04-05T08:20:52;99314.25;;;19.42;21.57
50636;BME280;36598;46.054;11.130;2023-04-05T08:23:19;99310.34;;;19.39;21.14
50636;BME280;36598;46.054;11.130;2023-04-05T08:25:45;99307.53;;;18.69;22.69
50636;BME280;36598;46.054;11.130;2023-04-05T08:28:10;99311.31;;;17.67;23.24
50636;BME280;36598;46.054;11.130;2023-04-05T08:30:35;99320.13;;;19.01;21.96
50636;BME280;36598;46.054;11.130;2023-04-05T08:33:01;99316.59;;;17.96;22.54
50636;BME280;36598;46.054;11.130;2023-04-05T08:35:26;99301.59;;;16.88;24.52
50636;BME280;36598;46.054;11.130;2023-04-05T08:37:51;99308.59;;;17.14;23.41
50636;BME280;36598;46.054;11.130;2023-04-05T08:40:17;99304.56;;;17.77;23.02
50636;BME280;36598;46.054;11.130;2023-04-05T08:42:45;99306.81;;;18.19;21.84
50636;BME280;36598;46.054;11.130;2023-04-05T08:45:10;99306.25;;;18.98;21.02
50636;BME280;36598;46.054;11.130;2023-04-05T08:47:39;99289.34;;;19.25;21.62
50636;BME280;36598;46.054;11.130;2023-04-05T08:50:05;99297.38;;;18.53;21.68
50636;BME280;36598;46.054;11.130;2023-04-05T08:52:31;99292.09;;;18.65;21.74
50636;BME280;36598;46.054;11.130;2023-04-05T08:54:57;99294.38;;;20.21;20.40
50636;BME280;36598;46.054;11.130;2023-04-05T08:57:25;99296.47;;;17.80;21.55
50636;BME280;36598;46.054;11.130;2023-04-05T08:59:53;99295.81;;;18.52;21.42
50636;BME280;36598;46.054;11.130;2023-04-05T09:02:19;99293.81;;;17.45;22.54
50636;BME280;36598;46.054;11.130;2023-04-05T09:04:46;99284.75;;;18.12;21.94
50636;BME280;36598;46.054;11.130;2023-04-05T09:07:13;99290.66;;;18.97;21.29
50636;BME280;36598;46.054;11.130;2023-04-05T09:09:38;99288.53;;;17.16;23.07
50636;BME280;36598;46.054;11.130;2023-04-05T09:12:06;99282.84;;;17.60;22.65
50636;BME280;36598;46.054;11.130;2023-04-05T09:14:34;99272.75;;;18.12;22.18
50636;BME280;36598;46.054;11.130;2023-04-05T09:17:03;99270.66;;;17.85;22.21
50636;BME280;36598;46.054;11.130;2023-04-05T09:19:29;99278.41;;;15.45;24.38
50636;BME280;36598;46.054;11.130;2023-04-05T09:24:30;99266.81;;;17.20;23.04
50636;BME280;36598;46.054;11.130;2023-04-05T09:27:10;99269.16;;;16.34;23.82
50636;BME280;36598;46.054;11.130;2023-04-05T09:29:36;99262.28;;;16.47;23.75
50636;BME280;36598;46.054;11.130;2023-04-05T09:32:02;99266.31;;;16.68;23.95
50636;BME280;36598;46.054;11.130;2023-04-05T09:34:31;99265.34;;;15.03;25.09
50636;BME280;36598;46.054;11.130;2023-04-05T09:36:57;99264.81;;;15.34;25.10
50636;BME280;36598;46.054;11.130;2023-04-05T09:39:26;99249.63;;;16.56;23.81
50636;BME280;36598;46.054;11.130;2023-04-05T09:42:05;99239.72;;;17.79;22.91
50636;BME280;36598;46.054;11.130;2023-04-05T09:47:15;99244.56;;;16.07;24.21
50636;BME280;36598;46.054;11.130;2023-04-05T09:49:41;99232.94;;;16.87;23.53
50636;BME280;36598;46.054;11.130;2023-04-05T09:55:02;99227.50;;;17.55;22.48
50636;BME280;36598;46.054;11.130;2023-04-05T09:57:28;99218.03;;;17.52;22.64
50636;BME280;36598;46.054;11.130;2023-04-05T09:59:57;99218.31;;;17.54;21.88
50636;BME280;36598;46.054;11.130;2023-04-05T10:02:23;99219.69;;;17.40;22.28
50636;BME280;36598;46.054;11.130;2023-04-05T10:04:48;99215.59;;;17.23;22.74
50636;BME280;36598;46.054;11.130;2023-04-05T10:07:14;99213.75;;;16.10;23.26
50636;BME280;36598;46.054;11.130;2023-04-05T10:09:40;99203.97;;;16.27;22.87
50636;BME280;36598;46.054;11.130;2023-04-05T10:12:06;99194.78;;;18.65;21.13
50636;BME280;36598;46.054;11.130;2023-04-05T10:14:33;99190.97;;;17.49;21.37
50636;BME280;36598;46.054;11.130;2023-04-05T10:22:16;99178.63;;;18.33;20.68
50636;BME280;36598;46.054;11.130;2023-04-05T10:24:48;99176.66;;;17.47;21.71
50636;BME280;36598;46.054;11.130;2023-04-05T10:29:50;99171.09;;;17.56;21.66
50636;BME280;36598;46.054;11.130;2023-04-05T10:32:26;99164.31;;;17.94;21.02
50636;BME280;36598;46.054;11.130;2023-04-05T10:34:59;99166.19;;;17.29;21.31
50636;BME280;36598;46.054;11.130;2023-04-05T10:37:34;99153.13;;;16.86;21.26
50636;BME280;36598;46.054;11.130;2023-04-05T10:40:01;99161.44;;;14.65;24.22
50636;BME280;36598;46.054;11.130;2023-04-05T10:42:27;99150.25;;;16.01;24.11
50636;BME280;36598;46.054;11.130;2023-04-05T10:44:57;99139.44;;;17.77;23.06
50636;BME280;36598;46.054;11.130;2023-04-05T10:47:25;99142.06;;;17.81;23.26
50636;BME280;36598;46.054;11.130;2023-04-05T10:49:52;99141.84;;;16.98;23.01
50636;BME280;36598;46.054;11.130;2023-04-05T10:52:18;99138.97;;;16.49;22.97
50636;BME280;36598;46.054;11.130;2023-04-05T10:54:44;99141.22;;;16.63;22.70
50636;BME280;36598;46.054;11.130;2023-04-05T10:57:10;99133.72;;;16.29;22.52
50636;BME280;36598;46.054;11.130;2023-04-05T10:59:40;99129.66;;;15.39;24.14
50636;BME280;36598;46.054;11.130;2023-04-05T11:02:06;99121.97;;;17.46;21.98
50636;BME280;36598;46.054;11.130;2023-04-05T11:04:32;99114.94;;;15.86;22.70
50636;BME280;36598;46.054;11.130;2023-04-05T11:07:17;99113.59;;;16.96;22.22
50636;BME280;36598;46.054;11.130;2023-04-05T11:10:03;99106.44;;;16.64;21.87
50636;BME280;36598;46.054;11.130;2023-04-05T11:23:32;99100.03;;;15.19;23.06
50636;BME280;36598;46.054;11.130;2023-04-05T11:26:17;99085.78;;;16.93;21.98
50636;BME280;36598;46.054;11.130;2023-04-05T11:28:42;99079.41;;;17.88;20.98
50636;BME280;36598;46.054;11.130;2023-04-05T11:31:14;99075.56;;;18.55;20.04
50636;BME280;36598;46.054;11.130;2023-04-05T11:36:08;99059.25;;;18.44;19.85
50636;BME280;36598;46.054;11.130;2023-04-05T11:38:34;99068.66;;;17.49;19.60
50636;BME280;36598;46.054;11.130;2023-04-05T11:43:31;99055.72;;;17.24;20.47
50636;BME280;36598;46.054;11.130;2023-04-05T11:46:00;99051.28;;;16.77;20.38
50636;BME280;36598;46.054;11.130;2023-04-05T11:48:26;99052.38;;;16.49;20.83
50636;BME280;36598;46.054;11.130;2023-04-05T11:50:51;99045.06;;;16.11;21.40
50636;BME280;36598;46.054;11.130;2023-04-05T11:53:18;99045.91;;;16.61;21.76
50636;BME280;36598;46.054;11.130;2023-04-05T11:55:44;99047.41;;;16.75;21.13
50636;BME280;36598;46.054;11.130;2023-04-05T12:00:57;99032.91;;;17.72;20.30
50636;BME280;36598;46.054;11.130;2023-04-05T12:03:23;99022.50;;;17.72;20.89
50636;BME280;36598;46.054;11.130;2023-04-05T12:05:52;99022.66;;;17.41;20.80
50636;BME280;36598;46.054;11.130;2023-04-05T12:08:18;99015.34;;;17.90;20.29
50636;BME280;36598;46.054;11.130;2023-04-05T12:10:44;99013.53;;;16.73;20.95
50636;BME280;36598;46.054;11.130;2023-04-05T12:13:23;99017.88;;;16.74;20.77
50636;BME280;36598;46.054;11.130;2023-04-05T12:15:49;99006.00;;;16.92;20.39
50636;BME280;36598;46.054;11.130;2023-04-05T12:18:14;99004.53;;;16.78;19.95
50636;BME280;36598;46.054;11.130;2023-04-05T12:20:39;99008.72;;;16.02;20.81
50636;BME280;36598;46.054;11.130;2023-04-05T12:23:05;98991.34;;;16.78;20.90
50636;BME280;36598;46.054;11.130;2023-04-05T12:25:30;98994.44;;;16.00;21.79
50636;BME280;36598;46.054;11.130;2023-04-05T12:27:56;98989.16;;;16.33;21.74
50636;BME280;36598;46.054;11.130;2023-04-05T12:30:27;98985.28;;;15.34;22.92
50636;BME280;36598;46.054;11.130;2023-04-05T12:33:00;98978.19;;;16.08;23.02
50636;BME280;36598;46.054;11.130;2023-04-05T12:35:31;98978.31;;;15.73;22.38
50636;BME280;36598;46.054;11.130;2023-04-05T12:38:02;98975.28;;;15.23;22.02
50636;BME280;36598;46.054;11.130;2023-04-05T12:40:29;98977.25;;;15.80;22.76
50636;BME280;36598;46.054;11.130;2023-04-05T12:43:00;98968.69;;;14.95;23.64
50636;BME280;36598;46.054;11.130;2023-04-05T12:45:26;98968.75;;;15.61;22.39
50636;BME280;36598;46.054;11.130;2023-04-05T12:47:55;98969.72;;;14.76;23.45
50636;BME280;36598;46.054;11.130;2023-04-05T12:50:24;98963.56;;;15.50;22.99
50636;BME280;36598;46.054;11.130;2023-04-05T12:52:57;98959.41;;;15.55;23.26
50636;BME280;36598;46.054;11.130;2023-04-05T12:55:23;98963.34;;;15.23;23.54
50636;BME280;36598;46.054;11.130;2023-04-05T12:57:52;98955.81;;;15.11;23.52
50636;BME280;36598;46.054;11.130;2023-04-05T13:00:17;98952.75;;;14.96;23.90
50636;BME280;36598;46.054;11.130;2023-04-05T13:02:48;98949.75;;;14.90;22.21
50636;BME280;36598;46.054;11.130;2023-04-05T13:05:15;98944.50;;;15.49;22.29
50636;BME280;36598;46.054;11.130;2023-04-05T13:07:40;98946.38;;;14.48;23.39
50636;BME280;36598;46.054;11.130;2023-04-05T13:10:05;98944.47;;;14.45;23.41
50636;BME280;36598;46.054;11.130;2023-04-05T13:12:31;98937.22;;;14.60;23.88
50636;BME280;36598;46.054;11.130;2023-04-05T13:14:56;98932.34;;;14.99;23.63
50636;BME280;36598;46.054;11.130;2023-04-05T13:17:22;98929.06;;;15.13;23.83
50636;BME280;36598;46.054;11.130;2023-04-05T13:19:47;98934.88;;;14.46;24.07
50636;BME280;36598;46.054;11.130;2023-04-05T13:22:12;98928.66;;;15.02;23.61
50636;BME280;36598;46.054;11.130;2023-04-05T13:24:37;98924.84;;;15.31;23.55
50636;BME280;36598;46.054;11.130;2023-04-05T13:27:03;98919.41;;;14.70;23.77
50636;BME280;36598;46.054;11.130;2023-04-05T13:29:28;98918.63;;;14.70;23.72
50636;BME280;36598;46.054;11.130;2023-04-05T13:31:53;98918.09;;;14.37;24.28
50636;BME280;36598;46.054;11.130;2023-04-05T13:34:19;98915.91;;;15.14;23.38
50636;BME280;36598;46.054;11.130;2023-04-05T13:36:44;98918.75;;;15.23;23.96
50636;BME280;36598;46.054;11.130;2023-04-05T13:39:10;98906.28;;;14.45;24.21
50636;BME280;36598;46.054;11.130;2023-04-05T13:41:35;98915.53;;;14.55;23.95
50636;BME280;36598;46.054;11.130;2023-04-05T13:44:00;98906.59;;;14.60;24.11